Time;durP1;ratioP1;P1;durP2;ratioP2;P2;SDS_P1;SDS_P2;PMS_P1;PMS_P2;Temp;Humidity;BMP_temperature;BMP_pressure;BME280_temperature;BME280_humidity;BME280_pressure;Samples;Min_cycle;Max_cycle;Signal;HPM_P1;HPM_P2
2023/10/23 00:03:26;;;;;;;9.70;5.90;;;;;;;13.44;75.51;98854.06;234623;214;138751;-59
2023/10/23 00:08:29;;;;;;;11.30;5.60;;;;;;;13.50;75.48;98861.48;234560;215;147331;-58
2023/10/23 00:13:33;;;;;;;10.00;5.40;;;;;;;13.47;75.32;98864.20;234272;215;138921;-63
2023/10/23 00:18:36;;;;;;;10.40;6.00;;;;;;;13.41;75.32;98871.04;234579;214;138569;-61
2023/10/23 00:23:39;;;;;;;10.50;5.40;;;;;;;13.34;75.44;98874.13;234593;215;148431;-60
2023/10/23 00:28:42;;;;;;;11.80;6.10;;;;;;;13.28;75.58;98878.89;234475;214;138603;-61
2023/10/23 00:33:45;;;;;;;8.60;5.50;;;;;;;13.22;75.60;98883.55;234589;215;137524;-60
2023/10/23 00:38:49;;;;;;;10.50;5.40;;;;;;;13.19;75.75;98884.80;234397;214;147765;-62
2023/10/23 00:43:52;;;;;;;10.90;6.20;;;;;;;13.21;75.78;98892.48;234511;214;139414;-59
2023/10/23 00:48:55;;;;;;;13.30;6.20;;;;;;;13.22;75.73;98889.39;234528;215;136887;-61
2023/10/23 00:53:59;;;;;;;14.30;6.80;;;;;;;13.22;75.72;98891.19;234634;214;147995;-60
2023/10/23 00:59:02;;;;;;;12.50;6.80;;;;;;;13.21;75.58;98896.61;234417;215;138445;-60
2023/10/23 01:04:06;;;;;;;11.50;7.00;;;;;;;13.12;75.63;98898.39;234430;215;140238;-60
2023/10/23 01:09:09;;;;;;;12.80;6.60;;;;;;;13.01;75.84;98899.02;234408;214;147653;-59
2023/10/23 01:14:12;;;;;;;10.50;6.60;;;;;;;12.99;76.08;98905.23;234379;215;139814;-58
2023/10/23 01:19:15;;;;;;;12.70;7.30;;;;;;;13.01;76.03;98904.89;234194;215;139359;-61
2023/10/23 01:24:21;;;;;;;12.20;7.70;;;;;;;13.00;75.98;98909.05;234105;215;148040;-60
2023/10/23 01:29:25;;;;;;;12.70;8.00;;;;;;;12.96;75.92;98912.01;234563;214;139036;-60
2023/10/23 01:34:28;;;;;;;13.00;7.60;;;;;;;12.91;76.08;98913.64;234514;214;138238;-60
2023/10/23 01:39:31;;;;;;;12.00;7.00;;;;;;;12.84;76.11;98909.33;234514;215;148062;-60
2023/10/23 01:44:35;;;;;;;10.40;6.80;;;;;;;12.81;76.20;98908.84;234291;215;139117;-60
2023/10/23 01:49:38;;;;;;;13.70;7.80;;;;;;;12.79;76.28;98911.67;234460;214;138951;-58
2023/10/23 01:54:43;;;;;;;12.10;6.80;;;;;;;12.78;76.25;98909.05;234557;214;147482;-60
2023/10/23 01:59:46;;;;;;;14.60;7.60;;;;;;;12.78;76.14;98913.33;234635;214;141784;-59
2023/10/23 02:04:50;;;;;;;11.10;7.20;;;;;;;12.73;76.06;98919.41;234610;214;137796;-60
2023/10/23 02:09:56;;;;;;;14.80;7.40;;;;;;;12.69;76.25;98927.36;234515;215;149386;-59
2023/10/23 02:15:00;;;;;;;13.40;6.70;;;;;;;12.64;76.25;98927.04;234398;215;139241;-60
2023/10/23 02:20:05;;;;;;;11.50;6.90;;;;;;;12.60;76.35;98928.35;234539;215;137945;-61
2023/10/23 02:25:08;;;;;;;13.70;8.00;;;;;;;12.66;76.48;98934.48;234510;214;147546;-56
2023/10/23 02:30:12;;;;;;;16.80;8.40;;;;;;;12.73;76.27;98933.13;234493;214;138961;-60
2023/10/23 02:35:15;;;;;;;12.70;8.10;;;;;;;12.68;76.09;98932.92;234563;215;138406;-60
2023/10/23 02:40:18;;;;;;;13.70;8.10;;;;;;;12.62;76.18;98933.01;234523;214;147809;-58
2023/10/23 02:45:22;;;;;;;12.50;7.40;;;;;;;12.59;76.17;98931.48;234501;214;141049;-57
2023/10/23 02:50:25;;;;;;;13.00;7.80;;;;;;;12.59;76.15;98930.27;234361;215;139046;-60
2023/10/23 02:55:28;;;;;;;11.30;7.60;;;;;;;12.61;76.00;98931.34;234515;214;147549;-58
2023/10/23 03:00:31;;;;;;;11.00;7.80;;;;;;;12.61;75.91;98927.76;234507;214;139571;-60
2023/10/23 03:05:35;;;;;;;13.70;8.10;;;;;;;12.59;75.73;98933.44;234715;214;138088;-59
2023/10/23 03:10:39;;;;;;;11.80;7.90;;;;;;;12.53;75.75;98931.87;234594;214;148458;-59
2023/10/23 03:15:43;;;;;;;14.90;8.60;;;;;;;12.50;75.77;98924.45;234350;214;140307;-58
2023/10/23 03:20:46;;;;;;;12.60;7.90;;;;;;;12.47;75.71;98924.98;234408;215;139374;-59
2023/10/23 03:25:50;;;;;;;11.10;7.00;;;;;;;12.43;75.67;98930.98;234394;215;148569;-56
2023/10/23 03:30:53;;;;;;;13.40;8.00;;;;;;;12.43;75.67;98932.07;234573;214;140058;-60
2023/10/23 03:35:56;;;;;;;12.10;8.10;;;;;;;12.43;75.42;98933.72;234704;215;137828;-60
2023/10/23 03:41:00;;;;;;;12.50;8.20;;;;;;;12.40;75.51;98938.54;234265;214;148065;-58
2023/10/23 03:46:03;;;;;;;13.30;7.80;;;;;;;12.37;75.46;98937.81;234543;214;138762;-59
2023/10/23 03:51:07;;;;;;;13.00;7.90;;;;;;;12.35;75.47;98936.92;234457;215;138107;-59
2023/10/23 03:56:10;;;;;;;13.10;7.50;;;;;;;12.30;75.61;98938.85;234522;214;148041;-61
2023/10/23 04:01:13;;;;;;;11.90;6.90;;;;;;;12.31;75.61;98941.61;234517;214;138753;-58
2023/10/23 04:06:16;;;;;;;11.60;7.30;;;;;;;12.32;75.57;98941.21;234641;214;137377;-59
2023/10/23 04:11:20;;;;;;;10.60;7.30;;;;;;;12.32;75.34;98939.23;234609;214;148800;-60
2023/10/23 04:16:23;;;;;;;11.50;7.30;;;;;;;12.34;75.30;98938.09;234487;214;138430;-59
2023/10/23 04:21:26;;;;;;;10.30;7.30;;;;;;;12.30;75.27;98938.51;234454;214;139250;-60
2023/10/23 04:26:29;;;;;;;13.20;8.40;;;;;;;12.26;75.39;98943.80;234647;214;267967;-59
2023/10/23 04:31:33;;;;;;;14.60;8.10;;;;;;;12.23;75.38;98951.84;234473;214;138903;-60
2023/10/23 04:36:36;;;;;;;12.90;7.40;;;;;;;12.18;75.48;98951.33;234283;214;137192;-58
2023/10/23 04:41:39;;;;;;;15.10;7.10;;;;;;;12.17;75.57;98952.95;234113;214;148228;-59
2023/10/23 04:46:42;;;;;;;12.00;6.80;;;;;;;12.23;75.42;98949.81;234433;214;140174;-59
2023/10/23 04:51:46;;;;;;;16.40;11.70;;;;;;;12.36;76.36;98954.13;234529;215;139548;-60
2023/10/23 04:56:49;;;;;;;25.00;17.20;;;;;;;12.44;75.43;98962.91;234490;215;147285;-61
2023/10/23 05:01:53;;;;;;;94.40;82.20;;;;;;;12.46;75.18;98970.27;234476;215;140033;-59
2023/10/23 05:06:57;;;;;;;12.30;8.60;;;;;;;12.49;75.01;98977.89;234458;214;137445;-60
2023/10/23 05:12:00;;;;;;;11.50;5.90;;;;;;;12.48;74.80;98985.05;234625;214;147558;-58
2023/10/23 05:17:03;;;;;;;11.30;5.70;;;;;;;12.47;74.64;98990.35;234517;214;139588;-61
2023/10/23 05:22:06;;;;;;;9.40;6.10;;;;;;;12.49;74.74;98997.14;234494;214;138010;-60
2023/10/23 05:27:09;;;;;;;16.00;9.60;;;;;;;12.52;74.56;99002.95;234465;215;147239;-52
2023/10/23 05:32:13;;;;;;;113.30;95.10;;;;;;;12.67;76.12;99013.06;234174;214;139680;-60
2023/10/23 05:37:16;;;;;;;20.00;14.40;;;;;;;12.67;74.81;99023.09;234641;214;138713;-59
2023/10/23 05:42:19;;;;;;;448.40;355.40;;;;;;;12.61;74.83;99029.95;234536;214;149655;-52
2023/10/23 05:47:24;;;;;;;39.50;25.20;;;;;;;12.57;74.98;99036.59;234531;215;140213;-47
2023/10/23 05:52:27;;;;;;;14.30;7.80;;;;;;;12.59;75.12;99040.39;234552;214;138616;-54
2023/10/23 05:57:31;;;;;;;13.60;7.30;;;;;;;12.60;74.91;99041.77;234443;215;147398;-53
2023/10/23 06:02:34;;;;;;;19.50;9.50;;;;;;;12.59;74.85;99045.70;234238;214;139655;-51
2023/10/23 06:07:38;;;;;;;16.70;7.90;;;;;;;12.62;74.96;99055.30;234471;215;138285;-53
2023/10/23 06:12:41;;;;;;;11.50;7.10;;;;;;;12.60;74.89;99058.65;234144;214;147706;-50
2023/10/23 06:17:44;;;;;;;10.50;7.30;;;;;;;12.60;74.80;99059.92;234719;214;139487;-50
2023/10/23 06:22:47;;;;;;;14.10;6.90;;;;;;;12.61;74.77;99057.73;234498;215;141300;-52
2023/10/23 06:27:50;;;;;;;142.00;103.60;;;;;;;12.64;74.88;99063.52;234518;214;147365;-52
2023/10/23 06:32:54;;;;;;;11.60;7.20;;;;;;;12.75;74.98;99065.40;234520;215;138728;-52
2023/10/23 06:37:57;;;;;;;19.80;10.80;;;;;;;12.83;74.89;99065.42;234504;215;137615;-53
2023/10/23 06:43:00;;;;;;;14.00;7.30;;;;;;;12.88;74.60;99067.34;233822;214;147440;-57
2023/10/23 06:48:03;;;;;;;62.30;46.80;;;;;;;12.90;74.34;99069.67;234621;214;140110;-53
2023/10/23 06:53:07;;;;;;;14.10;8.10;;;;;;;12.91;74.31;99069.67;234637;215;138344;-51
2023/10/23 06:58:10;;;;;;;14.30;6.60;;;;;;;12.90;74.13;99071.45;234471;215;147397;-51
2023/10/23 07:03:14;;;;;;;28.00;20.10;;;;;;;12.96;74.38;99072.47;234483;215;138690;-52
2023/10/23 07:08:18;;;;;;;27.60;10.20;;;;;;;13.10;74.07;99072.75;234506;215;138974;-53
2023/10/23 07:13:21;;;;;;;16.30;7.60;;;;;;;13.20;73.63;99072.48;234593;215;147764;-54
2023/10/23 07:18:26;;;;;;;14.00;7.40;;;;;;;13.27;73.53;99082.04;234340;215;141049;-56
2023/10/23 07:23:30;;;;;;;15.50;7.20;;;;;;;13.33;73.36;99076.77;234333;214;137943;-54
2023/10/23 07:28:34;;;;;;;14.20;7.10;;;;;;;13.43;73.18;99079.45;234035;214;147581;-56
2023/10/23 07:33:38;;;;;;;11.80;6.90;;;;;;;13.52;73.22;99083.28;234370;213;139482;-53
2023/10/23 07:38:43;;;;;;;19.50;7.10;;;;;;;13.61;73.17;99071.00;233637;214;137298;-53
2023/10/23 07:43:46;;;;;;;13.80;6.20;;;;;;;13.66;73.22;99075.92;234421;214;147929;-53
2023/10/23 07:48:50;;;;;;;181.40;120.00;;;;;;;13.76;73.23;99078.23;234240;214;139480;-55
2023/10/23 07:53:53;;;;;;;18.90;7.00;;;;;;;13.94;73.33;99073.52;234586;214;138204;-49
2023/10/23 07:58:56;;;;;;;17.70;6.40;;;;;;;14.04;72.82;99075.11;234361;214;147328;-51
2023/10/23 08:03:59;;;;;;;18.70;6.40;;;;;;;14.10;72.84;99069.61;234337;214;139529;-53
2023/10/23 08:09:05;;;;;;;13.30;6.30;;;;;;;14.19;72.54;99071.25;234477;214;138008;-53
2023/10/23 08:14:08;;;;;;;17.40;6.20;;;;;;;14.27;72.09;99079.77;234238;214;148470;-53
2023/10/23 08:19:12;;;;;;;12.90;6.00;;;;;;;14.33;71.80;99090.34;233865;214;139855;-51
2023/10/23 08:24:16;;;;;;;10.90;4.70;;;;;;;14.39;71.43;99090.58;234253;215;136899;-55
2023/10/23 08:29:19;;;;;;;16.40;4.80;;;;;;;14.53;70.74;99091.75;234598;215;147428;-55
2023/10/23 08:34:22;;;;;;;10.00;4.90;;;;;;;14.68;70.50;99087.90;233866;215;138925;-55
2023/10/23 08:39:26;;;;;;;10.80;4.70;;;;;;;14.87;70.43;99082.61;234449;214;138153;-53
2023/10/23 08:44:29;;;;;;;8.60;3.20;;;;;;;15.03;69.14;99076.02;234388;214;148688;-54
2023/10/23 08:49:33;;;;;;;9.30;3.70;;;;;;;15.09;68.19;99072.42;234383;214;140360;-49
2023/10/23 08:54:37;;;;;;;6.10;3.20;;;;;;;15.14;67.69;99070.23;234465;214;137211;-53
2023/10/23 08:59:42;;;;;;;10.50;3.50;;;;;;;15.20;67.83;99075.16;233915;215;147677;-53
2023/10/23 09:04:45;;;;;;;38.70;25.40;;;;;;;15.21;67.60;99087.77;234383;214;140656;-54
2023/10/23 09:09:49;;;;;;;19.60;7.50;;;;;;;15.27;68.21;99091.40;234434;215;138477;-52
2023/10/23 09:14:54;;;;;;;8.40;3.40;;;;;;;15.43;68.44;99099.91;234308;213;148195;-54
2023/10/23 09:19:57;;;;;;;10.10;2.90;;;;;;;15.56;67.37;99106.77;234342;215;139656;-55
2023/10/23 09:25:00;;;;;;;8.30;2.80;;;;;;;15.57;65.64;99118.46;233804;215;138176;-57
2023/10/23 09:30:05;;;;;;;8.20;3.50;;;;;;;15.55;65.65;99115.02;234552;214;148503;-54
2023/10/23 09:35:10;;;;;;;8.10;2.90;;;;;;;15.57;64.92;99115.65;234429;214;139508;-55
2023/10/23 09:40:14;;;;;;;6.70;2.80;;;;;;;15.56;64.65;99112.99;234384;215;137596;-53
2023/10/23 09:45:19;;;;;;;5.10;2.50;;;;;;;15.59;64.59;99113.63;234227;215;148908;-54
2023/10/23 09:50:22;;;;;;;9.90;2.80;;;;;;;15.66;64.59;99107.16;234300;214;139911;-55
2023/10/23 09:55:27;;;;;;;10.10;2.90;;;;;;;15.78;65.00;99098.35;234442;214;137741;-56
2023/10/23 10:00:33;;;;;;;7.80;2.40;;;;;;;15.94;64.34;99093.11;234387;215;148110;-54
2023/10/23 10:05:40;;;;;;;;;;;;;;;16.14;63.40;99088.41;234447;215;139816;-53
2023/10/23 10:10:44;;;;;;;7.90;2.10;;;;;;;16.38;62.60;99079.70;234463;214;132194;-55
2023/10/23 10:15:49;;;;;;;7.80;2.50;;;;;;;16.66;61.82;99065.13;234310;215;147513;-54
2023/10/23 10:20:57;;;;;;;6.10;1.80;;;;;;;16.91;60.44;99055.94;233886;214;139020;-48
2023/10/23 10:26:03;;;;;;;23.00;11.70;;;;;;;17.08;59.96;99055.75;234250;215;136952;-55
2023/10/23 10:31:06;;;;;;;7.50;2.60;;;;;;;17.22;58.70;99058.77;234221;215;147526;-47
2023/10/23 10:36:11;;;;;;;7.30;2.40;;;;;;;17.25;57.87;99058.84;234420;215;138710;-54
2023/10/23 10:41:18;;;;;;;5.70;2.40;;;;;;;17.28;57.39;99050.92;234460;215;136567;-52
2023/10/23 10:46:25;;;;;;;4.70;2.10;;;;;;;17.34;56.64;99042.63;234436;215;149159;-50
2023/10/23 10:51:30;;;;;;;9.00;2.20;;;;;;;17.46;56.78;99034.36;233883;215;139916;-46
2023/10/23 10:56:33;;;;;;;6.00;2.60;;;;;;;17.69;57.50;99029.27;234255;215;137336;-50
2023/10/23 11:01:37;;;;;;;5.00;2.10;;;;;;;17.89;56.27;99029.73;234257;215;148750;-50
2023/10/23 11:06:42;;;;;;;6.50;2.40;;;;;;;18.01;55.53;99021.98;234119;215;139716;-50
2023/10/23 11:11:45;;;;;;;5.00;2.10;;;;;;;18.09;55.49;99022.52;234335;215;138454;-52
2023/10/23 11:16:51;;;;;;;7.90;2.40;;;;;;;18.23;55.25;99016.86;234169;215;148887;-51
2023/10/23 11:22:11;;;;;;;;;;;;;;;18.36;53.25;99019.95;234294;215;138897;-52
2023/10/23 11:27:16;;;;;;;81.90;56.70;;;;;;;18.46;52.46;99015.45;234302;215;133055;-55
2023/10/23 11:32:19;;;;;;;8.10;3.90;;;;;;;18.67;53.01;99004.47;234177;215;147554;-53
2023/10/23 11:37:23;;;;;;;8.90;2.40;;;;;;;18.92;52.63;98990.36;234180;215;139497;-53
2023/10/23 11:42:26;;;;;;;6.40;2.30;;;;;;;19.10;52.34;98994.84;233888;215;137401;-56
2023/10/23 11:47:29;;;;;;;7.60;3.10;;;;;;;19.13;51.95;99001.45;234262;215;148155;-44
2023/10/23 11:52:33;;;;;;;7.90;2.70;;;;;;;19.16;50.70;99008.52;234031;215;138980;-44
2023/10/23 11:57:40;;;;;;;11.00;5.50;;;;;;;19.23;51.66;99005.54;234162;215;136726;-46
2023/10/23 12:02:46;;;;;;;7.60;2.10;;;;;;;19.37;53.90;99006.08;234129;215;147333;-45
2023/10/23 12:07:53;;;;;;;5.60;2.30;;;;;;;19.35;51.01;99008.47;234103;216;138897;-47
2023/10/23 12:12:56;;;;;;;6.80;2.60;;;;;;;19.23;51.25;99007.35;234218;215;137865;-44
2023/10/23 12:18:03;;;;;;;7.10;2.20;;;;;;;19.29;52.69;99003.98;234331;215;148860;-56
2023/10/23 12:23:07;;;;;;;7.40;1.80;;;;;;;19.32;51.14;98998.95;234159;215;138765;-56
2023/10/23 12:28:10;;;;;;;10.10;2.30;;;;;;;19.24;49.53;99006.29;233518;214;137945;-58
2023/10/23 12:33:13;;;;;;;5.80;2.00;;;;;;;19.21;49.26;99006.23;234160;215;147713;-57
2023/10/23 12:38:28;;;;;;;8.70;1.90;;;;;;;19.16;48.87;98997.53;234453;215;138698;-57
2023/10/23 12:43:31;;;;;;;5.20;1.50;;;;;;;19.05;48.34;98995.01;234312;214;139110;-56
2023/10/23 12:48:35;;;;;;;5.70;1.90;;;;;;;18.91;48.18;98993.31;234411;214;147425;-57
2023/10/23 12:53:38;;;;;;;3.90;1.50;;;;;;;18.84;48.22;98997.05;234331;215;139066;-57
2023/10/23 12:58:41;;;;;;;4.10;1.60;;;;;;;18.79;48.20;98991.08;234214;215;137265;-59
2023/10/23 13:03:44;;;;;;;4.40;1.60;;;;;;;18.74;48.05;98985.14;234197;215;148039;-57
2023/10/23 13:08:48;;;;;;;5.70;2.10;;;;;;;18.75;48.17;98983.06;234142;215;141096;-57
2023/10/23 13:13:51;;;;;;;9.30;1.80;;;;;;;18.70;47.95;98972.31;234261;215;139050;-56
2023/10/23 13:18:54;;;;;;;6.60;1.60;;;;;;;18.64;47.40;98973.65;234113;215;149159;-57
2023/10/23 13:23:57;;;;;;;4.90;1.60;;;;;;;18.59;47.76;98965.67;233849;215;140007;-55
2023/10/23 13:29:00;;;;;;;5.50;1.70;;;;;;;18.56;47.14;98961.11;234238;215;137783;-57
2023/10/23 13:34:04;;;;;;;4.60;1.70;;;;;;;18.52;47.42;98960.48;234300;215;147499;-57
2023/10/23 13:39:08;;;;;;;3.30;1.50;;;;;;;18.49;47.49;98958.96;234160;215;139762;-56
2023/10/23 13:44:11;;;;;;;8.30;1.70;;;;;;;18.48;47.86;98962.77;234250;215;139255;-58
2023/10/23 13:49:14;;;;;;;6.80;1.60;;;;;;;18.47;47.92;98964.86;234215;215;147644;-57
2023/10/23 13:54:18;;;;;;;3.80;1.60;;;;;;;18.45;47.98;98957.46;234198;215;140247;-57
2023/10/23 13:59:21;;;;;;;6.50;2.20;;;;;;;18.39;48.20;98952.52;234304;215;137571;-56
2023/10/23 14:04:25;;;;;;;209.70;159.10;;;;;;;18.34;48.79;98947.23;234147;215;149322;-58
2023/10/23 14:09:29;;;;;;;14.80;6.60;;;;;;;18.31;49.61;98944.80;234124;215;138883;-56
2023/10/23 14:14:48;;;;;;;4.90;2.00;;;;;;;18.26;49.43;98946.05;234244;215;137982;-54
2023/10/23 14:19:51;;;;;;;3.50;1.60;;;;;;;18.18;50.35;98941.75;234198;215;148889;-56
2023/10/23 14:24:55;;;;;;;4.30;1.70;;;;;;;18.12;49.87;98939.33;234285;214;138898;-57
2023/10/23 14:29:58;;;;;;;6.00;1.90;;;;;;;18.06;49.88;98936.23;234328;215;138324;-55
2023/10/23 14:35:02;;;;;;;8.60;2.40;;;;;;;17.98;50.56;98941.29;234273;215;149525;-58
2023/10/23 14:40:09;;;;;;;447.20;35.00;;;;;;;18.02;55.38;98941.98;233985;215;140154;-43
2023/10/23 14:45:13;;;;;;;11.90;2.70;;;;;;;18.42;57.24;98946.85;234122;215;138095;-56
2023/10/23 14:50:17;;;;;;;8.60;2.30;;;;;;;18.27;52.63;98944.48;234249;214;148834;-55
2023/10/23 14:55:21;;;;;;;10.50;2.70;;;;;;;18.00;53.32;98942.73;234188;215;140191;-55
2023/10/23 15:00:25;;;;;;;8.00;2.30;;;;;;;17.78;53.32;98940.48;234270;215;137650;-56
2023/10/23 15:05:29;;;;;;;8.00;2.20;;;;;;;17.58;54.07;98942.30;234224;215;147737;-56
2023/10/23 15:10:37;;;;;;;7.10;2.50;;;;;;;17.39;54.80;98946.04;234216;215;139911;-53
2023/10/23 15:15:40;;;;;;;12.50;3.00;;;;;;;17.20;55.30;98948.86;234280;215;137359;-57
2023/10/23 15:20:44;;;;;;;12.60;3.90;;;;;;;16.98;56.14;98949.02;233870;215;148220;-54
2023/10/23 15:25:49;;;;;;;12.10;2.80;;;;;;;16.81;57.38;98951.09;234224;215;138808;-50
2023/10/23 15:30:55;;;;;;;;;;;;;;;16.66;58.08;98957.06;234152;215;137374;-55
2023/10/23 15:35:59;;;;;;;11.90;3.10;;;;;;;16.47;58.36;98960.36;234372;215;147678;-56
2023/10/23 15:41:08;;;;;;;17.30;4.10;;;;;;;16.25;59.09;98963.33;234228;215;138859;-54
2023/10/23 15:46:13;;;;;;;17.90;4.10;;;;;;;16.08;60.03;98964.33;233856;215;137392;-56
2023/10/23 15:51:16;;;;;;;13.70;3.70;;;;;;;15.95;60.48;98966.48;234186;215;147653;-55
2023/10/23 15:56:19;;;;;;;9.40;2.90;;;;;;;15.84;60.72;98971.54;234244;215;139948;-52
2023/10/23 16:01:22;;;;;;;11.30;3.40;;;;;;;15.70;61.40;98976.65;234283;215;136669;-52
2023/10/23 16:06:26;;;;;;;12.00;4.10;;;;;;;15.59;62.28;98973.12;234244;215;149830;-55
2023/10/23 16:11:29;;;;;;;16.20;3.70;;;;;;;15.47;62.63;98972.54;233642;215;139471;-53
2023/10/23 16:16:32;;;;;;;13.70;4.20;;;;;;;15.34;63.22;98970.48;234245;215;137231;-54
2023/10/23 16:21:36;;;;;;;9.90;4.20;;;;;;;15.27;63.61;98969.70;234083;215;147423;-54
2023/10/23 16:26:39;;;;;;;12.90;4.00;;;;;;;15.14;63.78;98965.95;234258;215;139717;-56
2023/10/23 16:31:42;;;;;;;13.80;4.10;;;;;;;15.04;64.22;98967.78;234204;215;139512;-58
2023/10/23 16:36:45;;;;;;;12.60;4.50;;;;;;;14.92;64.75;98966.83;234139;215;147946;-58
2023/10/23 16:41:49;;;;;;;19.90;4.70;;;;;;;14.82;65.27;98962.83;234315;215;140721;-57
2023/10/23 16:46:53;;;;;;;18.10;5.10;;;;;;;14.72;65.60;98959.16;234246;215;138038;-59
2023/10/23 16:51:56;;;;;;;13.70;4.60;;;;;;;14.69;65.95;98952.25;234188;215;148056;-58
2023/10/23 16:57:00;;;;;;;25.40;5.10;;;;;;;14.68;66.28;98951.10;234215;215;138859;-58
2023/10/23 17:02:04;;;;;;;20.30;5.00;;;;;;;14.63;66.35;98954.30;234306;215;137092;-59
2023/10/23 17:07:07;;;;;;;18.80;5.70;;;;;;;14.59;66.56;98952.85;234199;214;148733;-59
2023/10/23 17:12:11;;;;;;;20.90;5.50;;;;;;;14.54;66.84;98954.84;234200;215;140003;-57
2023/10/23 17:17:14;;;;;;;36.80;6.80;;;;;;;14.44;67.16;98950.42;234298;215;138021;-58
2023/10/23 17:22:17;;;;;;;30.20;6.80;;;;;;;14.36;67.45;98949.10;234149;215;148766;-57
2023/10/23 17:27:21;;;;;;;559.80;424.20;;;;;;;14.31;68.00;98949.21;234073;215;140276;-58
2023/10/23 17:32:24;;;;;;;32.50;16.10;;;;;;;14.36;69.19;98950.16;234196;215;137775;-60
2023/10/23 17:37:27;;;;;;;22.30;8.00;;;;;;;14.46;68.04;98950.85;234117;215;149910;-60
2023/10/23 17:42:31;;;;;;;15.30;6.50;;;;;;;14.41;67.87;98952.98;234196;215;138907;-60
2023/10/23 17:47:34;;;;;;;16.20;6.70;;;;;;;14.34;67.83;98954.83;234337;215;138144;-60
2023/10/23 17:52:37;;;;;;;113.70;76.50;;;;;;;14.29;68.12;98959.48;233817;215;148363;-61
2023/10/23 17:57:40;;;;;;;85.40;58.00;;;;;;;14.20;68.42;98962.30;234043;215;141020;-61
2023/10/23 18:02:46;;;;;;;28.30;8.40;;;;;;;14.11;69.06;98965.52;233907;215;139360;-60
2023/10/23 18:07:55;;;;;;;28.80;8.80;;;;;;;14.02;68.90;98966.25;234097;215;149470;-60
2023/10/23 18:12:59;;;;;;;28.80;9.00;;;;;;;13.98;68.95;98964.27;234217;214;138820;-60
2023/10/23 18:18:02;;;;;;;20.90;8.30;;;;;;;13.85;69.18;98963.10;234356;215;137860;-61
2023/10/23 18:23:05;;;;;;;22.00;8.30;;;;;;;13.74;69.44;98961.43;234198;215;149214;-59
2023/10/23 18:28:09;;;;;;;21.40;7.70;;;;;;;13.67;69.70;98963.18;234097;215;139748;-59
2023/10/23 18:33:12;;;;;;;27.30;8.70;;;;;;;13.63;69.82;98961.17;234146;215;140278;-61
2023/10/23 18:38:16;;;;;;;543.70;431.80;;;;;;;13.64;70.37;98959.70;234190;215;148134;-60
2023/10/23 18:43:19;;;;;;;36.30;11.80;;;;;;;13.77;70.79;98956.44;233962;215;138901;-59
2023/10/23 18:48:22;;;;;;;20.60;9.80;;;;;;;13.67;69.70;98950.34;234185;215;138739;-58
2023/10/23 18:53:26;;;;;;;25.50;11.10;;;;;;;13.53;69.46;98944.33;234381;215;148339;-60
2023/10/23 18:58:30;;;;;;;23.70;11.30;;;;;;;13.38;69.57;98942.77;233262;215;139960;-59
2023/10/23 19:03:33;;;;;;;20.30;10.50;;;;;;;13.27;69.61;98942.02;234090;216;138474;-60
2023/10/23 19:08:36;;;;;;;21.70;10.60;;;;;;;13.16;69.87;98936.92;234139;215;148438;-59
2023/10/23 19:13:39;;;;;;;20.20;10.70;;;;;;;13.07;69.93;98936.36;234288;215;140639;-60
2023/10/23 19:18:43;;;;;;;20.40;10.40;;;;;;;13.00;70.11;98934.34;234104;216;138018;-61
2023/10/23 19:23:46;;;;;;;23.60;11.20;;;;;;;12.97;70.06;98931.71;234231;215;148853;-60
2023/10/23 19:28:49;;;;;;;21.70;11.60;;;;;;;12.94;70.08;98931.58;233945;215;138767;-59
2023/10/23 19:33:53;;;;;;;19.10;11.60;;;;;;;12.95;70.15;98926.13;234181;215;137900;-60
2023/10/23 19:38:56;;;;;;;24.20;11.30;;;;;;;12.92;70.19;98924.77;234108;215;148188;-58
2023/10/23 19:44:00;;;;;;;24.10;11.60;;;;;;;12.90;70.14;98922.42;234046;214;139475;-60
2023/10/23 19:49:05;;;;;;;19.40;11.10;;;;;;;12.82;69.98;98915.92;234240;215;139707;-59
2023/10/23 19:54:09;;;;;;;20.90;10.80;;;;;;;12.70;70.07;98916.45;234183;215;148410;-60
2023/10/23 19:59:33;;;;;;;20.90;11.30;;;;;;;12.59;70.40;98917.93;234276;215;139006;-58
2023/10/23 20:04:36;;;;;;;24.10;12.20;;;;;;;12.52;70.48;98916.31;233957;215;138909;-61
2023/10/23 20:09:39;;;;;;;25.60;11.90;;;;;;;12.47;70.52;98917.16;234085;215;147729;-61
2023/10/23 20:14:44;;;;;;;25.20;12.90;;;;;;;12.40;70.44;98920.75;234207;215;140316;-61
2023/10/23 20:19:47;;;;;;;21.10;12.30;;;;;;;12.35;70.36;98916.66;234185;215;139551;-60
2023/10/23 20:24:52;;;;;;;24.50;12.30;;;;;;;12.32;70.16;98916.86;234237;215;149859;-61
2023/10/23 20:29:55;;;;;;;21.80;11.90;;;;;;;12.23;70.28;98917.64;234383;215;139399;-60
2023/10/23 20:34:58;;;;;;;30.50;12.70;;;;;;;12.18;70.31;98924.22;234136;215;137456;-59
2023/10/23 20:40:03;;;;;;;28.70;12.90;;;;;;;12.07;70.15;98931.40;234186;215;147719;-60
2023/10/23 20:45:07;;;;;;;26.30;12.60;;;;;;;12.01;70.40;98930.23;234129;215;138823;-60
2023/10/23 20:50:10;;;;;;;23.00;12.80;;;;;;;11.97;70.45;98930.13;234329;215;137113;-60
2023/10/23 20:55:14;;;;;;;25.60;12.90;;;;;;;11.91;70.58;98921.35;234198;215;147415;-61
2023/10/23 21:00:17;;;;;;;25.20;12.60;;;;;;;11.82;70.77;98918.38;234204;215;138790;-61
2023/10/23 21:05:20;;;;;;;22.10;11.70;;;;;;;11.79;70.79;98917.33;234340;215;139854;-59
2023/10/23 21:10:23;;;;;;;25.60;13.10;;;;;;;11.81;70.71;98916.85;234295;215;148085;-60
2023/10/23 21:15:26;;;;;;;25.20;12.60;;;;;;;11.80;70.65;98913.86;234197;215;139645;-59
2023/10/23 21:20:29;;;;;;;23.20;13.60;;;;;;;11.78;70.62;98909.05;234266;215;139723;-62
2023/10/23 21:25:32;;;;;;;23.50;13.30;;;;;;;11.76;70.45;98903.64;234213;215;147562;-61
2023/10/23 21:30:36;;;;;;;25.10;13.90;;;;;;;11.68;70.31;98900.64;234126;215;139866;-60
2023/10/23 21:35:39;;;;;;;23.30;13.50;;;;;;;11.59;70.38;98904.10;234391;215;139717;-60
2023/10/23 21:40:46;;;;;;;22.60;13.50;;;;;;;11.45;70.45;98904.73;233792;207;147297;-61
2023/10/23 21:45:49;;;;;;;24.90;13.30;;;;;;;11.33;70.73;98912.27;234201;215;139780;-61
2023/10/23 21:51:15;;;;;;;26.10;12.70;;;;;;;11.25;70.90;98901.09;234360;215;138570;-62
2023/10/23 21:56:20;;;;;;;24.90;13.20;;;;;;;11.21;70.93;98888.91;234264;215;147355;-59
2023/10/23 22:01:45;;;;;;;22.10;13.50;;;;;;;11.24;71.19;98885.16;233943;215;139495;-58
2023/10/23 22:06:50;;;;;;;26.70;14.20;;;;;;;11.27;71.01;98879.46;234183;215;138013;-61
2023/10/23 22:11:54;;;;;;;27.80;13.80;;;;;;;11.22;70.76;98873.25;234403;215;148932;-61
2023/10/23 22:16:57;;;;;;;24.20;13.30;;;;;;;11.19;70.92;98872.58;234194;215;139758;-60
2023/10/23 22:22:01;;;;;;;27.90;14.50;;;;;;;11.13;70.75;98879.68;233935;215;138928;-60
2023/10/23 22:27:04;;;;;;;25.40;15.20;;;;;;;11.03;70.82;98873.10;234442;214;147637;-61
2023/10/23 22:32:07;;;;;;;29.00;15.00;;;;;;;10.97;71.10;98863.38;234384;214;139624;-60
2023/10/23 22:37:10;;;;;;;23.20;13.30;;;;;;;10.97;71.18;98865.85;234406;215;138376;-59
2023/10/23 22:42:34;;;;;;;24.40;13.80;;;;;;;10.94;71.28;98855.63;234276;214;148603;-60
2023/10/23 22:47:37;;;;;;;24.30;13.70;;;;;;;11.05;71.31;98849.17;234465;214;140364;-58
2023/10/23 22:52:42;;;;;;;21.00;12.90;;;;;;;11.04;71.08;98846.18;234462;214;142460;-60
2023/10/23 22:57:45;;;;;;;20.70;12.90;;;;;;;11.04;71.00;98844.42;234446;215;147739;-60
2023/10/23 23:02:49;;;;;;;21.50;12.90;;;;;;;10.98;70.93;98843.97;234520;214;139118;-60
2023/10/23 23:07:55;;;;;;;19.80;12.90;;;;;;;10.87;70.88;98845.21;234597;214;138223;-59
2023/10/23 23:12:59;;;;;;;21.70;13.00;;;;;;;10.76;71.30;98849.33;234539;214;148934;-61
2023/10/23 23:18:05;;;;;;;22.70;12.90;;;;;;;10.68;71.44;98840.60;234670;214;138830;-60